createdAt,value
2023-03-02T07:17:55.810Z,100917.78
2023-03-02T07:22:57.930Z,100909.34
2023-03-02T07:27:59.988Z,100914.87
2023-03-02T07:33:02.061Z,100902.75
2023-03-02T07:38:04.162Z,100901.87
2023-03-02T07:43:06.233Z,100917.53
2023-03-02T07:48:08.330Z,100904.19
2023-03-02T07:53:10.492Z,100901.81
2023-03-02T07:58:12.627Z,100896.91
2023-03-02T08:03:14.793Z,100880.19
2023-03-02T08:08:16.900Z,100883.31
2023-03-02T08:13:18.979Z,100894.13
2023-03-02T08:18:21.107Z,100886.81
2023-03-02T08:23:23.518Z,100886.94
2023-03-02T08:28:25.625Z,100894.94
2023-03-02T08:33:28.870Z,100894.78
2023-03-02T08:38:32.234Z,100899.59
2023-03-02T08:43:34.912Z,100888.91
2023-03-02T08:48:37.014Z,100882.19
2023-03-02T08:53:41.974Z,100888.78
2023-03-02T08:58:44.084Z,100869.25
2023-03-02T09:03:46.260Z,100884.16
2023-03-02T09:08:48.694Z,100882.06
2023-03-02T09:13:50.946Z,100875.91
2023-03-02T09:18:54.213Z,100869.25
2023-03-02T09:23:58.216Z,100872.00
2023-03-02T09:29:00.736Z,100867.97
2023-03-02T09:34:04.004Z,100863.50
2023-03-02T09:39:12.200Z,100848.03
2023-03-02T09:44:40.752Z,100852.16
2023-03-02T09:50:15.659Z,100860.59
2023-03-02T09:55:25.474Z,100853.19
2023-03-02T10:00:37.414Z,100851.72
2023-03-02T10:05:42.979Z,100845.62
2023-03-02T10:10:53.790Z,100833.50
2023-03-02T10:15:59.037Z,100837.94
2023-03-02T10:21:13.841Z,100833.09
2023-03-02T10:26:26.982Z,100826.50
2023-03-02T10:31:32.329Z,100827.13
2023-03-02T10:36:40.861Z,100824.84
2023-03-02T10:42:20.775Z,100824.06
2023-03-02T10:47:26.988Z,100832.50
2023-03-02T10:52:29.360Z,100815.34
2023-03-02T10:57:37.145Z,100819.87
2023-03-02T11:02:39.265Z,100821.41
2023-03-02T11:07:57.900Z,100790.38
2023-03-02T11:13:01.742Z,100797.53
2023-03-02T11:18:29.122Z,100801.84
2023-03-02T11:23:34.161Z,100810.41
2023-03-02T11:28:47.487Z,100793.59
2023-03-02T11:34:18.016Z,100787.22
2023-03-02T11:39:29.032Z,100785.59
2023-03-02T11:44:31.243Z,100780.13
2023-03-02T11:49:40.792Z,100783.41
2023-03-02T11:54:46.806Z,100764.16
2023-03-02T11:59:51.121Z,100762.34
2023-03-02T12:05:21.781Z,100757.28
2023-03-02T12:10:54.509Z,100741.31
2023-03-02T12:15:56.766Z,100727.94
2023-03-02T12:21:11.323Z,100731.78
2023-03-02T12:26:19.532Z,100721.00
2023-03-02T12:31:21.704Z,100716.28
2023-03-02T12:36:32.605Z,100709.19
2023-03-02T12:42:03.118Z,100707.91
2023-03-02T12:47:14.495Z,100715.47
2023-03-02T12:52:36.870Z,100688.00
2023-03-02T12:57:50.594Z,100683.34
2023-03-02T13:02:55.668Z,100699.03
2023-03-02T13:08:05.891Z,100687.19
2023-03-02T13:13:22.308Z,100671.81
2023-03-02T13:18:32.090Z,100668.91
2023-03-02T13:23:34.553Z,100679.34
2023-03-02T13:28:39.171Z,100671.84
2023-03-02T13:33:45.450Z,100671.50
2023-03-02T13:38:53.799Z,100662.00
2023-03-02T13:43:57.140Z,100656.44
2023-03-02T13:49:11.295Z,100654.44
2023-03-02T13:54:21.198Z,100644.53
2023-03-02T13:59:23.762Z,100621.75
2023-03-02T14:04:26.402Z,100615.44
2023-03-02T14:09:28.580Z,100624.25
2023-03-02T14:14:40.679Z,100603.97
2023-03-02T14:19:42.772Z,100596.91
2023-03-02T14:24:46.122Z,100580.41
2023-03-02T14:29:48.211Z,100571.50
2023-03-02T14:34:50.287Z,100546.47
2023-03-02T14:39:55.622Z,100565.00
2023-03-02T14:44:59.243Z,100571.66
2023-03-02T14:50:02.004Z,100571.16
2023-03-02T14:55:15.307Z,100580.44
2023-03-02T15:00:17.839Z,100571.97
2023-03-02T15:05:19.911Z,100562.59
2023-03-02T15:10:22.322Z,100567.28
2023-03-02T15:15:26.244Z,100556.34
2023-03-02T15:20:28.953Z,100572.16
2023-03-02T15:25:31.995Z,100557.25
2023-03-02T15:30:34.312Z,100560.47
2023-03-02T15:35:38.548Z,100558.22
2023-03-02T15:40:40.948Z,100558.72
2023-03-02T15:45:47.199Z,100553.47
2023-03-02T15:51:03.123Z,100556.22
2023-03-02T15:56:07.637Z,100555.25
2023-03-02T16:01:11.662Z,100543.09
2023-03-02T16:06:15.740Z,100547.69
2023-03-02T16:11:23.166Z,100542.59
2023-03-02T16:16:26.257Z,100553.22
2023-03-02T16:21:28.779Z,100561.56
2023-03-02T16:26:37.258Z,100562.37
2023-03-02T16:31:40.219Z,100553.88
2023-03-02T16:36:42.469Z,100558.25
2023-03-02T16:41:46.264Z,100554.88
2023-03-02T16:46:48.401Z,100566.88
2023-03-02T16:51:50.470Z,100572.87
2023-03-02T16:56:52.633Z,100575.56
2023-03-02T17:01:54.956Z,100586.81
2023-03-02T17:07:00.837Z,100584.56
2023-03-02T17:12:03.820Z,100587.84
2023-03-02T17:17:07.336Z,100592.63
2023-03-02T17:22:09.629Z,100598.28
2023-03-02T17:27:24.200Z,100588.47
2023-03-02T17:32:27.363Z,100589.84
2023-03-02T17:37:30.471Z,100599.53
2023-03-02T17:42:33.214Z,100591.84
2023-03-02T17:47:35.780Z,100608.34
2023-03-02T17:52:37.873Z,100601.25
2023-03-02T17:57:40.778Z,100603.41
2023-03-02T18:02:43.097Z,100617.91
2023-03-02T18:07:45.714Z,100612.12
2023-03-02T18:12:48.643Z,100624.63
2023-03-02T18:17:50.762Z,100625.22
2023-03-02T18:22:52.854Z,100606.16
2023-03-02T18:27:55.085Z,100606.25
2023-03-02T18:32:57.624Z,100605.56
2023-03-02T18:37:59.954Z,100612.03
2023-03-02T18:43:02.134Z,100603.53
2023-03-02T18:48:04.509Z,100604.94
2023-03-02T18:53:08.658Z,100620.31
2023-03-02T18:58:18.803Z,100623.34
2023-03-02T19:03:20.980Z,100620.59
2023-03-02T19:08:24.170Z,100606.69
2023-03-02T19:13:26.347Z,100609.00
2023-03-02T19:18:28.826Z,100599.13
2023-03-02T19:23:32.463Z,100618.28
2023-03-02T19:28:35.092Z,100631.19
2023-03-02T19:33:38.672Z,100623.63
2023-03-02T19:38:42.892Z,100608.88
2023-03-02T19:43:48.329Z,100613.47
2023-03-02T19:48:50.450Z,100631.53
2023-03-02T19:53:52.716Z,100635.34
2023-03-02T19:58:54.868Z,100643.38
2023-03-02T20:03:58.219Z,100632.06
2023-03-02T20:09:04.281Z,100626.69
2023-03-02T20:14:06.694Z,100638.16
2023-03-02T20:19:09.012Z,100634.59
2023-03-02T20:24:11.409Z,100632.41
2023-03-02T20:29:14.321Z,100631.31
2023-03-02T20:34:16.718Z,100643.34
2023-03-02T20:39:23.426Z,100648.56
2023-03-02T20:44:26.142Z,100639.75
2023-03-02T20:49:31.109Z,100647.03
2023-03-02T20:54:38.414Z,100647.09
2023-03-02T20:59:40.946Z,100639.84
